sensor_id;sensor_type;location;lat;lon;timestamp;P1;durP1;ratioP1;P2;durP2;ratioP2
64832;SDS011;51290;45.060;38.948;2023-09-07T00:00:49;7.18;;;4.05;;
64832;SDS011;51290;45.060;38.948;2023-09-07T00:03:15;5.07;;;3.72;;
64832;SDS011;51290;45.060;38.948;2023-09-07T00:05:41;6.28;;;4.10;;
64832;SDS011;51290;45.060;38.948;2023-09-07T00:08:07;6.18;;;4.07;;
64832;SDS011;51290;45.060;38.948;2023-09-07T00:10:33;5.60;;;3.65;;
64832;SDS011;51290;45.060;38.948;2023-09-07T00:13:03;6.07;;;4.03;;
64832;SDS011;51290;45.060;38.948;2023-09-07T00:15:30;9.43;;;4.05;;
64832;SDS011;51290;45.060;38.948;2023-09-07T00:18:03;6.45;;;4.18;;
64832;SDS011;51290;45.060;38.948;2023-09-07T00:20:29;7.88;;;4.50;;
64832;SDS011;51290;45.060;38.948;2023-09-07T00:22:55;6.97;;;4.63;;
64832;SDS011;51290;45.060;38.948;2023-09-07T00:25:21;12.48;;;4.55;;
64832;SDS011;51290;45.060;38.948;2023-09-07T00:27:47;9.45;;;5.60;;
64832;SDS011;51290;45.060;38.948;2023-09-07T00:30:13;14.95;;;4.88;;
64832;SDS011;51290;45.060;38.948;2023-09-07T00:32:40;10.13;;;4.80;;
64832;SDS011;51290;45.060;38.948;2023-09-07T00:35:06;5.22;;;4.15;;
64832;SDS011;51290;45.060;38.948;2023-09-07T00:37:32;12.90;;;4.90;;
64832;SDS011;51290;45.060;38.948;2023-09-07T00:39:59;10.18;;;4.97;;
64832;SDS011;51290;45.060;38.948;2023-09-07T00:42:25;6.63;;;4.70;;
64832;SDS011;51290;45.060;38.948;2023-09-07T00:44:51;8.07;;;5.45;;
64832;SDS011;51290;45.060;38.948;2023-09-07T00:47:17;8.82;;;5.15;;
64832;SDS011;51290;45.060;38.948;2023-09-07T00:49:43;6.32;;;4.63;;
64832;SDS011;51290;45.060;38.948;2023-09-07T00:52:10;6.38;;;4.97;;
64832;SDS011;51290;45.060;38.948;2023-09-07T00:54:36;5.68;;;3.92;;
64832;SDS011;51290;45.060;38.948;2023-09-07T00:57:07;9.55;;;5.05;;
64832;SDS011;51290;45.060;38.948;2023-09-07T00:59:34;10.82;;;4.28;;
64832;SDS011;51290;45.060;38.948;2023-09-07T01:02:00;8.85;;;4.63;;
64832;SDS011;51290;45.060;38.948;2023-09-07T01:04:26;7.07;;;4.75;;
64832;SDS011;51290;45.060;38.948;2023-09-07T01:06:56;6.47;;;4.43;;
64832;SDS011;51290;45.060;38.948;2023-09-07T01:09:56;6.10;;;4.18;;
64832;SDS011;51290;45.060;38.948;2023-09-07T01:12:23;12.35;;;4.85;;
64832;SDS011;51290;45.060;38.948;2023-09-07T01:14:49;7.97;;;4.93;;
64832;SDS011;51290;45.060;38.948;2023-09-07T01:17:15;7.20;;;4.65;;
64832;SDS011;51290;45.060;38.948;2023-09-07T01:19:42;6.93;;;4.28;;
64832;SDS011;51290;45.060;38.948;2023-09-07T01:22:10;8.80;;;4.50;;
64832;SDS011;51290;45.060;38.948;2023-09-07T01:24:37;6.82;;;4.78;;
64832;SDS011;51290;45.060;38.948;2023-09-07T01:27:04;7.03;;;4.45;;
64832;SDS011;51290;45.060;38.948;2023-09-07T01:29:35;6.25;;;4.30;;
64832;SDS011;51290;45.060;38.948;2023-09-07T01:32:06;17.02;;;4.47;;
64832;SDS011;51290;45.060;38.948;2023-09-07T01:34:32;7.75;;;4.95;;
64832;SDS011;51290;45.060;38.948;2023-09-07T01:36:58;7.22;;;5.10;;
64832;SDS011;51290;45.060;38.948;2023-09-07T01:39:24;9.32;;;4.78;;
64832;SDS011;51290;45.060;38.948;2023-09-07T01:41:50;5.82;;;4.40;;
64832;SDS011;51290;45.060;38.948;2023-09-07T01:44:16;6.47;;;4.55;;
64832;SDS011;51290;45.060;38.948;2023-09-07T01:46:42;5.90;;;4.50;;
64832;SDS011;51290;45.060;38.948;2023-09-07T01:49:08;7.40;;;4.60;;
64832;SDS011;51290;45.060;38.948;2023-09-07T01:51:35;6.35;;;4.65;;
64832;SDS011;51290;45.060;38.948;2023-09-07T01:54:02;7.60;;;4.88;;
64832;SDS011;51290;45.060;38.948;2023-09-07T01:56:29;8.57;;;4.55;;
64832;SDS011;51290;45.060;38.948;2023-09-07T01:58:55;6.38;;;4.88;;
64832;SDS011;51290;45.060;38.948;2023-09-07T02:03:47;6.25;;;4.47;;
64832;SDS011;51290;45.060;38.948;2023-09-07T02:06:14;9.15;;;5.20;;
64832;SDS011;51290;45.060;38.948;2023-09-07T02:08:40;7.90;;;4.55;;
64832;SDS011;51290;45.060;38.948;2023-09-07T02:11:06;5.82;;;4.43;;
64832;SDS011;51290;45.060;38.948;2023-09-07T02:13:32;7.85;;;4.80;;
64832;SDS011;51290;45.060;38.948;2023-09-07T02:15:58;7.13;;;5.05;;
64832;SDS011;51290;45.060;38.948;2023-09-07T02:18:28;9.07;;;4.90;;
64832;SDS011;51290;45.060;38.948;2023-09-07T02:21:00;8.10;;;5.18;;
64832;SDS011;51290;45.060;38.948;2023-09-07T02:23:32;9.48;;;5.68;;
64832;SDS011;51290;45.060;38.948;2023-09-07T02:25:58;8.82;;;4.82;;
64832;SDS011;51290;45.060;38.948;2023-09-07T02:28:25;6.57;;;5.32;;
64832;SDS011;51290;45.060;38.948;2023-09-07T02:30:51;8.05;;;5.32;;
64832;SDS011;51290;45.060;38.948;2023-09-07T02:33:17;11.02;;;5.78;;
64832;SDS011;51290;45.060;38.948;2023-09-07T02:35:44;7.53;;;5.25;;
64832;SDS011;51290;45.060;38.948;2023-09-07T02:38:10;9.75;;;5.38;;
64832;SDS011;51290;45.060;38.948;2023-09-07T02:40:39;7.18;;;4.97;;
64832;SDS011;51290;45.060;38.948;2023-09-07T02:43:07;7.90;;;5.10;;
64832;SDS011;51290;45.060;38.948;2023-09-07T02:45:34;7.95;;;5.18;;
64832;SDS011;51290;45.060;38.948;2023-09-07T02:48:00;8.98;;;5.32;;
64832;SDS011;51290;45.060;38.948;2023-09-07T02:50:27;9.80;;;6.25;;
64832;SDS011;51290;45.060;38.948;2023-09-07T02:52:55;6.97;;;5.18;;
64832;SDS011;51290;45.060;38.948;2023-09-07T02:55:21;9.73;;;5.18;;
64832;SDS011;51290;45.060;38.948;2023-09-07T02:57:47;7.65;;;4.93;;
64832;SDS011;51290;45.060;38.948;2023-09-07T03:00:13;8.35;;;5.38;;
64832;SDS011;51290;45.060;38.948;2023-09-07T03:02:39;11.93;;;5.45;;
64832;SDS011;51290;45.060;38.948;2023-09-07T03:05:06;10.50;;;5.68;;
64832;SDS011;51290;45.060;38.948;2023-09-07T03:07:32;14.25;;;5.07;;
64832;SDS011;51290;45.060;38.948;2023-09-07T03:09:59;9.68;;;5.80;;
64832;SDS011;51290;45.060;38.948;2023-09-07T03:12:26;64.03;;;10.10;;
64832;SDS011;51290;45.060;38.948;2023-09-07T03:14:53;7.65;;;5.00;;
64832;SDS011;51290;45.060;38.948;2023-09-07T03:17:19;8.88;;;5.55;;
64832;SDS011;51290;45.060;38.948;2023-09-07T03:19:47;7.15;;;5.03;;
64832;SDS011;51290;45.060;38.948;2023-09-07T03:22:13;7.80;;;4.80;;
64832;SDS011;51290;45.060;38.948;2023-09-07T03:24:40;7.65;;;4.97;;
64832;SDS011;51290;45.060;38.948;2023-09-07T03:27:06;8.65;;;5.10;;
64832;SDS011;51290;45.060;38.948;2023-09-07T03:29:32;8.25;;;5.55;;
64832;SDS011;51290;45.060;38.948;2023-09-07T03:32:02;9.57;;;6.43;;
64832;SDS011;51290;45.060;38.948;2023-09-07T03:34:28;9.55;;;6.15;;
64832;SDS011;51290;45.060;38.948;2023-09-07T03:36:55;9.45;;;5.32;;
64832;SDS011;51290;45.060;38.948;2023-09-07T03:39:21;8.27;;;5.45;;
64832;SDS011;51290;45.060;38.948;2023-09-07T03:41:48;12.55;;;5.47;;
64832;SDS011;51290;45.060;38.948;2023-09-07T03:44:14;10.93;;;6.32;;
64832;SDS011;51290;45.060;38.948;2023-09-07T03:46:40;11.90;;;5.95;;
64832;SDS011;51290;45.060;38.948;2023-09-07T03:49:07;15.63;;;6.50;;
64832;SDS011;51290;45.060;38.948;2023-09-07T03:51:33;8.93;;;5.47;;
64832;SDS011;51290;45.060;38.948;2023-09-07T03:53:59;19.77;;;6.07;;
64832;SDS011;51290;45.060;38.948;2023-09-07T03:56:27;9.07;;;5.97;;
64832;SDS011;51290;45.060;38.948;2023-09-07T03:58:53;14.75;;;6.13;;
64832;SDS011;51290;45.060;38.948;2023-09-07T04:01:20;8.70;;;6.00;;
64832;SDS011;51290;45.060;38.948;2023-09-07T04:03:46;10.48;;;6.45;;
64832;SDS011;51290;45.060;38.948;2023-09-07T04:06:12;13.68;;;6.20;;
64832;SDS011;51290;45.060;38.948;2023-09-07T04:08:38;9.27;;;5.93;;
64832;SDS011;51290;45.060;38.948;2023-09-07T04:11:05;11.40;;;6.18;;
64832;SDS011;51290;45.060;38.948;2023-09-07T04:13:31;17.45;;;6.90;;
64832;SDS011;51290;45.060;38.948;2023-09-07T04:15:58;11.40;;;6.22;;
64832;SDS011;51290;45.060;38.948;2023-09-07T04:18:25;11.82;;;5.93;;
64832;SDS011;51290;45.060;38.948;2023-09-07T04:20:51;8.40;;;5.85;;
64832;SDS011;51290;45.060;38.948;2023-09-07T04:23:17;10.85;;;6.45;;
64832;SDS011;51290;45.060;38.948;2023-09-07T04:25:43;10.38;;;5.93;;
64832;SDS011;51290;45.060;38.948;2023-09-07T04:28:11;9.52;;;5.97;;
64832;SDS011;51290;45.060;38.948;2023-09-07T04:30:40;10.15;;;6.25;;
64832;SDS011;51290;45.060;38.948;2023-09-07T04:33:07;15.10;;;6.30;;
64832;SDS011;51290;45.060;38.948;2023-09-07T04:35:34;11.10;;;6.40;;
64832;SDS011;51290;45.060;38.948;2023-09-07T04:38:00;10.77;;;6.55;;
64832;SDS011;51290;45.060;38.948;2023-09-07T04:40:27;11.30;;;6.57;;
64832;SDS011;51290;45.060;38.948;2023-09-07T04:42:53;10.88;;;6.70;;
64832;SDS011;51290;45.060;38.948;2023-09-07T04:45:19;11.55;;;6.53;;
64832;SDS011;51290;45.060;38.948;2023-09-07T04:47:45;12.85;;;6.55;;
64832;SDS011;51290;45.060;38.948;2023-09-07T04:50:11;11.50;;;6.05;;
64832;SDS011;51290;45.060;38.948;2023-09-07T04:52:40;17.17;;;6.90;;
64832;SDS011;51290;45.060;38.948;2023-09-07T04:55:06;9.80;;;6.65;;
64832;SDS011;51290;45.060;38.948;2023-09-07T04:57:34;12.73;;;6.38;;
64832;SDS011;51290;45.060;38.948;2023-09-07T05:00:01;9.38;;;6.15;;
64832;SDS011;51290;45.060;38.948;2023-09-07T05:02:28;14.20;;;5.82;;
64832;SDS011;51290;45.060;38.948;2023-09-07T05:04:54;14.77;;;6.20;;
64832;SDS011;51290;45.060;38.948;2023-09-07T05:07:20;9.52;;;6.07;;
64832;SDS011;51290;45.060;38.948;2023-09-07T05:09:47;10.68;;;6.47;;
64832;SDS011;51290;45.060;38.948;2023-09-07T05:12:14;8.77;;;6.13;;
64832;SDS011;51290;45.060;38.948;2023-09-07T05:14:43;9.70;;;6.55;;
64832;SDS011;51290;45.060;38.948;2023-09-07T05:17:09;10.40;;;6.70;;
64832;SDS011;51290;45.060;38.948;2023-09-07T05:19:35;10.90;;;6.45;;
64832;SDS011;51290;45.060;38.948;2023-09-07T05:22:02;13.48;;;6.70;;
64832;SDS011;51290;45.060;38.948;2023-09-07T05:24:28;10.88;;;6.68;;
64832;SDS011;51290;45.060;38.948;2023-09-07T05:26:54;13.43;;;6.22;;
64832;SDS011;51290;45.060;38.948;2023-09-07T05:29:20;12.43;;;6.03;;
64832;SDS011;51290;45.060;38.948;2023-09-07T05:31:47;16.27;;;6.40;;
64832;SDS011;51290;45.060;38.948;2023-09-07T05:34:13;12.35;;;6.45;;
64832;SDS011;51290;45.060;38.948;2023-09-07T05:36:39;12.75;;;6.72;;
64832;SDS011;51290;45.060;38.948;2023-09-07T05:39:05;9.52;;;6.13;;
64832;SDS011;51290;45.060;38.948;2023-09-07T05:41:31;14.32;;;6.40;;
64832;SDS011;51290;45.060;38.948;2023-09-07T05:43:57;13.93;;;7.28;;
64832;SDS011;51290;45.060;38.948;2023-09-07T05:46:23;17.15;;;7.60;;
64832;SDS011;51290;45.060;38.948;2023-09-07T05:48:50;19.02;;;6.93;;
64832;SDS011;51290;45.060;38.948;2023-09-07T05:51:16;14.60;;;6.35;;
64832;SDS011;51290;45.060;38.948;2023-09-07T05:53:42;13.70;;;6.10;;
64832;SDS011;51290;45.060;38.948;2023-09-07T05:56:08;17.10;;;6.00;;
64832;SDS011;51290;45.060;38.948;2023-09-07T05:58:35;12.00;;;5.88;;
64832;SDS011;51290;45.060;38.948;2023-09-07T06:01:01;10.82;;;5.50;;
64832;SDS011;51290;45.060;38.948;2023-09-07T06:03:28;21.10;;;7.20;;
64832;SDS011;51290;45.060;38.948;2023-09-07T06:05:54;19.27;;;6.43;;
64832;SDS011;51290;45.060;38.948;2023-09-07T06:08:20;14.40;;;6.53;;
64832;SDS011;51290;45.060;38.948;2023-09-07T06:10:46;19.30;;;5.93;;
64832;SDS011;51290;45.060;38.948;2023-09-07T06:13:13;12.88;;;5.93;;
64832;SDS011;51290;45.060;38.948;2023-09-07T06:15:39;13.55;;;6.18;;
64832;SDS011;51290;45.060;38.948;2023-09-07T06:18:05;16.75;;;5.97;;
64832;SDS011;51290;45.060;38.948;2023-09-07T06:20:32;11.30;;;5.93;;
64832;SDS011;51290;45.060;38.948;2023-09-07T06:22:59;10.20;;;5.53;;
64832;SDS011;51290;45.060;38.948;2023-09-07T06:25:25;12.52;;;4.82;;
64832;SDS011;51290;45.060;38.948;2023-09-07T06:27:53;11.73;;;5.10;;
64832;SDS011;51290;45.060;38.948;2023-09-07T06:30:19;14.68;;;5.05;;
64832;SDS011;51290;45.060;38.948;2023-09-07T06:32:45;11.30;;;4.70;;
64832;SDS011;51290;45.060;38.948;2023-09-07T06:35:13;9.93;;;5.10;;
64832;SDS011;51290;45.060;38.948;2023-09-07T06:37:39;8.73;;;4.45;;
64832;SDS011;51290;45.060;38.948;2023-09-07T06:40:07;12.02;;;4.95;;
64832;SDS011;51290;45.060;38.948;2023-09-07T06:42:34;8.60;;;5.22;;
64832;SDS011;51290;45.060;38.948;2023-09-07T06:45:05;11.43;;;4.95;;
64832;SDS011;51290;45.060;38.948;2023-09-07T06:47:32;6.28;;;4.03;;
64832;SDS011;51290;45.060;38.948;2023-09-07T06:49:59;6.88;;;4.28;;
64832;SDS011;51290;45.060;38.948;2023-09-07T06:52:27;9.23;;;4.75;;
64832;SDS011;51290;45.060;38.948;2023-09-07T06:54:53;11.02;;;5.13;;
64832;SDS011;51290;45.060;38.948;2023-09-07T06:57:19;10.40;;;4.68;;
64832;SDS011;51290;45.060;38.948;2023-09-07T06:59:46;10.07;;;4.38;;
64832;SDS011;51290;45.060;38.948;2023-09-07T07:02:12;6.40;;;3.88;;
64832;SDS011;51290;45.060;38.948;2023-09-07T07:04:38;6.05;;;4.30;;
64832;SDS011;51290;45.060;38.948;2023-09-07T07:07:05;8.10;;;4.40;;
64832;SDS011;51290;45.060;38.948;2023-09-07T07:09:31;7.78;;;3.80;;
64832;SDS011;51290;45.060;38.948;2023-09-07T07:11:59;10.50;;;4.13;;
64832;SDS011;51290;45.060;38.948;2023-09-07T07:14:28;5.60;;;3.78;;
64832;SDS011;51290;45.060;38.948;2023-09-07T07:16:54;5.40;;;3.90;;
64832;SDS011;51290;45.060;38.948;2023-09-07T07:19:21;7.70;;;3.58;;
64832;SDS011;51290;45.060;38.948;2023-09-07T07:21:48;5.00;;;2.72;;
64832;SDS011;51290;45.060;38.948;2023-09-07T07:24:15;8.05;;;4.53;;
64832;SDS011;51290;45.060;38.948;2023-09-07T07:26:41;4.72;;;3.20;;
64832;SDS011;51290;45.060;38.948;2023-09-07T07:29:08;6.60;;;2.92;;
64832;SDS011;51290;45.060;38.948;2023-09-07T07:31:35;7.75;;;3.25;;
64832;SDS011;51290;45.060;38.948;2023-09-07T07:34:02;8.95;;;3.03;;
64832;SDS011;51290;45.060;38.948;2023-09-07T07:36:28;5.68;;;3.50;;
64832;SDS011;51290;45.060;38.948;2023-09-07T07:38:54;6.82;;;2.95;;
64832;SDS011;51290;45.060;38.948;2023-09-07T07:41:21;3.30;;;2.72;;
64832;SDS011;51290;45.060;38.948;2023-09-07T07:43:47;5.00;;;2.90;;
64832;SDS011;51290;45.060;38.948;2023-09-07T07:46:13;5.93;;;3.60;;
64832;SDS011;51290;45.060;38.948;2023-09-07T07:48:42;5.10;;;3.40;;
64832;SDS011;51290;45.060;38.948;2023-09-07T07:51:08;6.65;;;3.25;;
64832;SDS011;51290;45.060;38.948;2023-09-07T07:53:35;4.55;;;3.15;;
64832;SDS011;51290;45.060;38.948;2023-09-07T07:56:02;6.35;;;3.20;;
64832;SDS011;51290;45.060;38.948;2023-09-07T07:58:28;4.18;;;2.83;;
64832;SDS011;51290;45.060;38.948;2023-09-07T08:00:55;7.70;;;3.22;;
64832;SDS011;51290;45.060;38.948;2023-09-07T08:03:26;4.50;;;3.00;;
64832;SDS011;51290;45.060;38.948;2023-09-07T08:05:53;6.85;;;3.20;;
64832;SDS011;51290;45.060;38.948;2023-09-07T08:08:19;10.65;;;3.08;;
64832;SDS011;51290;45.060;38.948;2023-09-07T08:10:45;3.67;;;2.90;;
64832;SDS011;51290;45.060;38.948;2023-09-07T08:13:12;7.85;;;3.08;;
64832;SDS011;51290;45.060;38.948;2023-09-07T08:15:39;6.13;;;3.17;;
64832;SDS011;51290;45.060;38.948;2023-09-07T08:18:06;3.70;;;2.75;;
64832;SDS011;51290;45.060;38.948;2023-09-07T08:20:34;10.57;;;2.83;;
64832;SDS011;51290;45.060;38.948;2023-09-07T08:23:02;7.68;;;3.33;;
64832;SDS011;51290;45.060;38.948;2023-09-07T08:25:33;10.13;;;3.55;;
64832;SDS011;51290;45.060;38.948;2023-09-07T08:27:59;4.53;;;2.97;;
64832;SDS011;51290;45.060;38.948;2023-09-07T08:30:25;5.55;;;3.20;;
64832;SDS011;51290;45.060;38.948;2023-09-07T08:32:51;4.13;;;2.58;;
64832;SDS011;51290;45.060;38.948;2023-09-07T08:35:17;4.38;;;3.08;;
64832;SDS011;51290;45.060;38.948;2023-09-07T08:37:43;3.78;;;2.65;;
64832;SDS011;51290;45.060;38.948;2023-09-07T08:40:12;5.60;;;2.78;;
64832;SDS011;51290;45.060;38.948;2023-09-07T08:42:42;7.78;;;2.70;;
64832;SDS011;51290;45.060;38.948;2023-09-07T08:45:08;6.05;;;3.28;;
64832;SDS011;51290;45.060;38.948;2023-09-07T08:47:38;6.03;;;2.97;;
64832;SDS011;51290;45.060;38.948;2023-09-07T08:50:05;3.58;;;2.72;;
64832;SDS011;51290;45.060;38.948;2023-09-07T08:52:36;3.33;;;2.80;;
64832;SDS011;51290;45.060;38.948;2023-09-07T08:55:02;4.82;;;3.10;;
64832;SDS011;51290;45.060;38.948;2023-09-07T08:57:32;3.20;;;2.85;;
64832;SDS011;51290;45.060;38.948;2023-09-07T08:59:58;4.68;;;2.70;;
64832;SDS011;51290;45.060;38.948;2023-09-07T09:02:24;4.03;;;2.85;;
64832;SDS011;51290;45.060;38.948;2023-09-07T09:04:51;3.17;;;2.75;;
64832;SDS011;51290;45.060;38.948;2023-09-07T09:07:18;6.57;;;2.80;;
64832;SDS011;51290;45.060;38.948;2023-09-07T09:09:44;3.25;;;2.80;;
64832;SDS011;51290;45.060;38.948;2023-09-07T09:12:11;5.60;;;2.90;;
64832;SDS011;51290;45.060;38.948;2023-09-07T09:14:39;4.63;;;3.45;;
64832;SDS011;51290;45.060;38.948;2023-09-07T09:17:11;5.15;;;2.83;;
64832;SDS011;51290;45.060;38.948;2023-09-07T09:19:40;4.07;;;3.00;;
64832;SDS011;51290;45.060;38.948;2023-09-07T09:22:09;4.38;;;3.03;;
64832;SDS011;51290;45.060;38.948;2023-09-07T09:24:36;2.92;;;2.60;;
64832;SDS011;51290;45.060;38.948;2023-09-07T09:27:03;5.22;;;2.90;;
64832;SDS011;51290;45.060;38.948;2023-09-07T09:29:32;9.30;;;2.90;;
64832;SDS011;51290;45.060;38.948;2023-09-07T09:32:00;5.38;;;2.95;;
64832;SDS011;51290;45.060;38.948;2023-09-07T09:34:36;3.80;;;3.00;;
64832;SDS011;51290;45.060;38.948;2023-09-07T09:37:03;8.07;;;3.17;;
64832;SDS011;51290;45.060;38.948;2023-09-07T09:39:29;3.85;;;2.72;;
64832;SDS011;51290;45.060;38.948;2023-09-07T09:41:58;3.95;;;2.70;;
64832;SDS011;51290;45.060;38.948;2023-09-07T09:44:24;4.60;;;2.80;;
64832;SDS011;51290;45.060;38.948;2023-09-07T09:46:53;5.45;;;3.05;;
64832;SDS011;51290;45.060;38.948;2023-09-07T09:49:21;3.67;;;2.60;;
64832;SDS011;51290;45.060;38.948;2023-09-07T09:51:49;3.30;;;2.60;;
64832;SDS011;51290;45.060;38.948;2023-09-07T09:54:18;3.05;;;2.70;;
64832;SDS011;51290;45.060;38.948;2023-09-07T09:56:45;4.28;;;2.70;;
64832;SDS011;51290;45.060;38.948;2023-09-07T09:59:16;3.28;;;2.67;;
64832;SDS011;51290;45.060;38.948;2023-09-07T10:01:46;3.33;;;2.67;;
64832;SDS011;51290;45.060;38.948;2023-09-07T10:04:16;2.97;;;2.53;;
64832;SDS011;51290;45.060;38.948;2023-09-07T10:06:50;3.05;;;2.45;;
64832;SDS011;51290;45.060;38.948;2023-09-07T10:09:20;4.22;;;2.35;;
64832;SDS011;51290;45.060;38.948;2023-09-07T10:11:50;4.10;;;2.90;;
64832;SDS011;51290;45.060;38.948;2023-09-07T10:14:18;3.92;;;2.72;;
64832;SDS011;51290;45.060;38.948;2023-09-07T10:16:46;3.35;;;2.78;;
64832;SDS011;51290;45.060;38.948;2023-09-07T10:19:21;5.45;;;2.90;;
64832;SDS011;51290;45.060;38.948;2023-09-07T10:21:49;3.42;;;2.58;;
64832;SDS011;51290;45.060;38.948;2023-09-07T10:24:32;5.30;;;2.80;;
64832;SDS011;51290;45.060;38.948;2023-09-07T10:27:02;3.38;;;2.47;;
64832;SDS011;51290;45.060;38.948;2023-09-07T10:29:41;2.88;;;2.58;;
64832;SDS011;51290;45.060;38.948;2023-09-07T10:32:11;4.78;;;2.60;;
64832;SDS011;51290;45.060;38.948;2023-09-07T10:34:40;4.63;;;3.58;;
64832;SDS011;51290;45.060;38.948;2023-09-07T10:37:10;4.00;;;2.88;;
64832;SDS011;51290;45.060;38.948;2023-09-07T10:39:39;3.33;;;2.70;;
64832;SDS011;51290;45.060;38.948;2023-09-07T10:42:08;5.13;;;2.92;;
64832;SDS011;51290;45.060;38.948;2023-09-07T10:44:45;4.45;;;2.97;;
64832;SDS011;51290;45.060;38.948;2023-09-07T10:47:11;2.78;;;2.42;;
64832;SDS011;51290;45.060;38.948;2023-09-07T10:49:38;4.47;;;3.10;;
64832;SDS011;51290;45.060;38.948;2023-09-07T10:52:05;4.97;;;3.10;;
64832;SDS011;51290;45.060;38.948;2023-09-07T10:54:33;3.10;;;2.72;;
64832;SDS011;51290;45.060;38.948;2023-09-07T10:57:07;6.18;;;3.08;;
64832;SDS011;51290;45.060;38.948;2023-09-07T10:59:34;4.53;;;2.65;;
64832;SDS011;51290;45.060;38.948;2023-09-07T11:02:04;3.90;;;2.60;;
64832;SDS011;51290;45.060;38.948;2023-09-07T11:04:30;4.15;;;2.70;;
64832;SDS011;51290;45.060;38.948;2023-09-07T11:06:56;8.70;;;2.70;;
64832;SDS011;51290;45.060;38.948;2023-09-07T11:09:23;3.55;;;2.78;;
64832;SDS011;51290;45.060;38.948;2023-09-07T11:11:49;7.47;;;2.95;;
64832;SDS011;51290;45.060;38.948;2023-09-07T11:14:15;4.25;;;2.50;;
64832;SDS011;51290;45.060;38.948;2023-09-07T11:16:40;3.72;;;2.83;;
64832;SDS011;51290;45.060;38.948;2023-09-07T11:19:08;8.43;;;2.90;;
64832;SDS011;51290;45.060;38.948;2023-09-07T11:21:34;3.70;;;2.85;;
64832;SDS011;51290;45.060;38.948;2023-09-07T11:24:01;3.53;;;2.80;;
64832;SDS011;51290;45.060;38.948;2023-09-07T11:26:43;8.57;;;3.13;;
64832;SDS011;51290;45.060;38.948;2023-09-07T11:29:13;3.83;;;2.70;;
64832;SDS011;51290;45.060;38.948;2023-09-07T11:31:44;3.55;;;2.58;;
64832;SDS011;51290;45.060;38.948;2023-09-07T11:34:11;4.18;;;3.08;;
64832;SDS011;51290;45.060;38.948;2023-09-07T11:36:41;3.13;;;2.60;;
64832;SDS011;51290;45.060;38.948;2023-09-07T11:39:08;3.60;;;2.95;;
64832;SDS011;51290;45.060;38.948;2023-09-07T11:41:43;3.03;;;2.80;;
64832;SDS011;51290;45.060;38.948;2023-09-07T11:44:10;5.32;;;3.20;;
64832;SDS011;51290;45.060;38.948;2023-09-07T11:46:36;3.40;;;2.67;;
64832;SDS011;51290;45.060;38.948;2023-09-07T11:49:03;3.67;;;2.92;;
64832;SDS011;51290;45.060;38.948;2023-09-07T11:51:32;6.63;;;3.10;;
64832;SDS011;51290;45.060;38.948;2023-09-07T11:53:58;7.00;;;2.97;;
64832;SDS011;51290;45.060;38.948;2023-09-07T11:56:25;5.90;;;3.22;;
64832;SDS011;51290;45.060;38.948;2023-09-07T11:58:52;4.35;;;2.78;;
64832;SDS011;51290;45.060;38.948;2023-09-07T12:01:18;4.45;;;2.80;;
64832;SDS011;51290;45.060;38.948;2023-09-07T12:03:44;5.05;;;3.38;;
64832;SDS011;51290;45.060;38.948;2023-09-07T12:06:11;6.53;;;3.25;;
64832;SDS011;51290;45.060;38.948;2023-09-07T12:08:37;3.78;;;3.15;;
64832;SDS011;51290;45.060;38.948;2023-09-07T12:11:03;4.53;;;3.20;;
64832;SDS011;51290;45.060;38.948;2023-09-07T12:13:29;4.00;;;3.08;;
64832;SDS011;51290;45.060;38.948;2023-09-07T12:15:55;7.55;;;2.97;;
64832;SDS011;51290;45.060;38.948;2023-09-07T12:18:21;5.88;;;3.45;;
64832;SDS011;51290;45.060;38.948;2023-09-07T12:20:49;4.50;;;3.22;;
64832;SDS011;51290;45.060;38.948;2023-09-07T12:23:15;4.40;;;3.15;;
64832;SDS011;51290;45.060;38.948;2023-09-07T12:25:41;5.22;;;3.50;;
64832;SDS011;51290;45.060;38.948;2023-09-07T12:28:07;6.30;;;3.70;;
64832;SDS011;51290;45.060;38.948;2023-09-07T12:30:33;7.32;;;3.72;;
64832;SDS011;51290;45.060;38.948;2023-09-07T12:32:59;5.13;;;3.75;;
64832;SDS011;51290;45.060;38.948;2023-09-07T12:35:25;5.90;;;3.83;;
64832;SDS011;51290;45.060;38.948;2023-09-07T12:37:51;8.68;;;3.60;;
64832;SDS011;51290;45.060;38.948;2023-09-07T12:40:17;5.53;;;3.50;;
64832;SDS011;51290;45.060;38.948;2023-09-07T12:42:44;7.03;;;4.07;;
64832;SDS011;51290;45.060;38.948;2023-09-07T12:45:11;5.85;;;4.28;;
64832;SDS011;51290;45.060;38.948;2023-09-07T12:47:39;4.78;;;3.75;;
64832;SDS011;51290;45.060;38.948;2023-09-07T12:50:05;6.65;;;4.20;;
64832;SDS011;51290;45.060;38.948;2023-09-07T12:52:32;5.07;;;4.00;;
64832;SDS011;51290;45.060;38.948;2023-09-07T12:55:03;4.80;;;3.78;;
64832;SDS011;51290;45.060;38.948;2023-09-07T12:57:33;5.90;;;4.45;;
64832;SDS011;51290;45.060;38.948;2023-09-07T13:00:01;6.90;;;4.45;;
64832;SDS011;51290;45.060;38.948;2023-09-07T13:02:32;6.00;;;4.28;;
64832;SDS011;51290;45.060;38.948;2023-09-07T13:04:58;10.15;;;4.05;;
64832;SDS011;51290;45.060;38.948;2023-09-07T13:07:24;6.38;;;4.60;;
64832;SDS011;51290;45.060;38.948;2023-09-07T13:09:50;4.65;;;3.67;;
64832;SDS011;51290;45.060;38.948;2023-09-07T13:12:16;4.47;;;3.78;;
64832;SDS011;51290;45.060;38.948;2023-09-07T13:14:42;7.03;;;4.22;;
64832;SDS011;51290;45.060;38.948;2023-09-07T13:17:11;11.35;;;4.65;;
64832;SDS011;51290;45.060;38.948;2023-09-07T13:19:39;4.50;;;3.75;;
64832;SDS011;51290;45.060;38.948;2023-09-07T13:22:05;4.85;;;3.95;;
64832;SDS011;51290;45.060;38.948;2023-09-07T13:24:33;6.72;;;4.10;;
64832;SDS011;51290;45.060;38.948;2023-09-07T13:26:59;5.75;;;4.45;;
64832;SDS011;51290;45.060;38.948;2023-09-07T13:29:25;6.25;;;4.05;;
64832;SDS011;51290;45.060;38.948;2023-09-07T13:31:51;5.80;;;4.32;;
64832;SDS011;51290;45.060;38.948;2023-09-07T13:34:21;7.03;;;4.35;;
64832;SDS011;51290;45.060;38.948;2023-09-07T13:36:47;5.18;;;4.13;;
64832;SDS011;51290;45.060;38.948;2023-09-07T13:39:13;6.53;;;4.25;;
64832;SDS011;51290;45.060;38.948;2023-09-07T13:41:39;17.98;;;4.70;;
64832;SDS011;51290;45.060;38.948;2023-09-07T13:44:05;8.50;;;4.10;;
64832;SDS011;51290;45.060;38.948;2023-09-07T13:46:31;5.70;;;4.03;;
64832;SDS011;51290;45.060;38.948;2023-09-07T13:49:00;6.15;;;4.30;;
64832;SDS011;51290;45.060;38.948;2023-09-07T13:51:26;9.27;;;4.57;;
64832;SDS011;51290;45.060;38.948;2023-09-07T13:53:52;7.25;;;4.40;;
64832;SDS011;51290;45.060;38.948;2023-09-07T13:56:18;7.70;;;4.60;;
64832;SDS011;51290;45.060;38.948;2023-09-07T13:58:44;7.38;;;4.30;;
64832;SDS011;51290;45.060;38.948;2023-09-07T14:01:11;4.68;;;3.75;;
64832;SDS011;51290;45.060;38.948;2023-09-07T14:03:37;6.53;;;3.85;;
64832;SDS011;51290;45.060;38.948;2023-09-07T14:06:03;6.60;;;3.75;;
64832;SDS011;51290;45.060;38.948;2023-09-07T14:08:29;10.07;;;4.32;;
64832;SDS011;51290;45.060;38.948;2023-09-07T14:10:58;5.60;;;4.07;;
64832;SDS011;51290;45.060;38.948;2023-09-07T14:13:24;7.70;;;3.75;;
64832;SDS011;51290;45.060;38.948;2023-09-07T14:15:50;5.93;;;4.00;;
64832;SDS011;51290;45.060;38.948;2023-09-07T14:18:16;5.45;;;4.18;;
64832;SDS011;51290;45.060;38.948;2023-09-07T14:20:42;5.57;;;4.10;;
64832;SDS011;51290;45.060;38.948;2023-09-07T14:23:08;4.97;;;3.80;;
64832;SDS011;51290;45.060;38.948;2023-09-07T14:25:34;8.25;;;4.53;;
64832;SDS011;51290;45.060;38.948;2023-09-07T14:28:00;6.18;;;4.25;;
64832;SDS011;51290;45.060;38.948;2023-09-07T14:30:26;6.00;;;4.30;;
64832;SDS011;51290;45.060;38.948;2023-09-07T14:32:52;6.07;;;3.90;;